sensor_id;sensor_type;location;lat;lon;timestamp;temperature;humidity
4312;DHT22;2169;49.086;9.284;2022-12-07T00:01:49;5.00;75.50
4312;DHT22;2169;49.086;9.284;2022-12-07T00:04:17;5.00;75.60
4312;DHT22;2169;49.086;9.284;2022-12-07T00:06:46;5.00;75.50
4312;DHT22;2169;49.086;9.284;2022-12-07T00:09:14;5.00;75.50
4312;DHT22;2169;49.086;9.284;2022-12-07T00:11:43;4.90;75.40
4312;DHT22;2169;49.086;9.284;2022-12-07T00:14:12;4.90;75.30
4312;DHT22;2169;49.086;9.284;2022-12-07T00:16:39;4.90;75.40
4312;DHT22;2169;49.086;9.284;2022-12-07T00:19:06;4.90;75.40
4312;DHT22;2169;49.086;9.284;2022-12-07T00:21:34;4.90;75.40
4312;DHT22;2169;49.086;9.284;2022-12-07T00:24:02;4.90;75.40
4312;DHT22;2169;49.086;9.284;2022-12-07T00:26:30;4.90;75.30
4312;DHT22;2169;49.086;9.284;2022-12-07T00:29:00;4.80;75.30
4312;DHT22;2169;49.086;9.284;2022-12-07T00:31:29;4.80;75.30
4312;DHT22;2169;49.086;9.284;2022-12-07T00:33:57;4.80;75.30
4312;DHT22;2169;49.086;9.284;2022-12-07T00:36:24;4.80;75.30
4312;DHT22;2169;49.086;9.284;2022-12-07T00:38:51;4.80;75.30
4312;DHT22;2169;49.086;9.284;2022-12-07T00:41:20;4.80;75.30
4312;DHT22;2169;49.086;9.284;2022-12-07T00:43:48;4.80;75.30
4312;DHT22;2169;49.086;9.284;2022-12-07T00:46:17;4.80;75.30
4312;DHT22;2169;49.086;9.284;2022-12-07T00:48:45;4.80;75.30
4312;DHT22;2169;49.086;9.284;2022-12-07T00:51:13;4.70;75.20
4312;DHT22;2169;49.086;9.284;2022-12-07T00:53:41;4.80;75.30
4312;DHT22;2169;49.086;9.284;2022-12-07T00:56:09;4.70;75.20
4312;DHT22;2169;49.086;9.284;2022-12-07T00:58:36;4.70;75.20
4312;DHT22;2169;49.086;9.284;2022-12-07T01:01:04;4.70;75.20
4312;DHT22;2169;49.086;9.284;2022-12-07T01:03:33;4.70;75.20
4312;DHT22;2169;49.086;9.284;2022-12-07T01:06:00;4.70;75.20
4312;DHT22;2169;49.086;9.284;2022-12-07T01:08:28;4.70;75.20
4312;DHT22;2169;49.086;9.284;2022-12-07T01:10:59;4.70;75.20
4312;DHT22;2169;49.086;9.284;2022-12-07T01:13:26;4.70;75.10
4312;DHT22;2169;49.086;9.284;2022-12-07T01:15:57;4.60;75.00
4312;DHT22;2169;49.086;9.284;2022-12-07T01:18:25;4.60;75.10
4312;DHT22;2169;49.086;9.284;2022-12-07T01:21:02;4.60;75.10
4312;DHT22;2169;49.086;9.284;2022-12-07T01:23:29;4.60;75.10
4312;DHT22;2169;49.086;9.284;2022-12-07T01:25:57;4.60;75.00
4312;DHT22;2169;49.086;9.284;2022-12-07T01:28:25;4.60;75.00
4312;DHT22;2169;49.086;9.284;2022-12-07T01:30:56;4.50;75.00
4312;DHT22;2169;49.086;9.284;2022-12-07T01:33:22;4.50;75.00
4312;DHT22;2169;49.086;9.284;2022-12-07T01:35:49;4.50;75.00
4312;DHT22;2169;49.086;9.284;2022-12-07T01:38:17;4.50;75.60
4312;DHT22;2169;49.086;9.284;2022-12-07T01:40:44;4.50;75.00
4312;DHT22;2169;49.086;9.284;2022-12-07T01:43:16;4.40;74.80
4312;DHT22;2169;49.086;9.284;2022-12-07T01:45:44;4.40;74.80
4312;DHT22;2169;49.086;9.284;2022-12-07T01:48:13;4.40;74.80
4312;DHT22;2169;49.086;9.284;2022-12-07T01:50:43;4.40;74.80
4312;DHT22;2169;49.086;9.284;2022-12-07T01:53:11;4.30;74.80
4312;DHT22;2169;49.086;9.284;2022-12-07T01:55:44;4.30;74.80
4312;DHT22;2169;49.086;9.284;2022-12-07T01:58:11;4.30;74.80
4312;DHT22;2169;49.086;9.284;2022-12-07T02:00:39;4.30;74.90
4312;DHT22;2169;49.086;9.284;2022-12-07T02:03:09;4.30;75.00
4312;DHT22;2169;49.086;9.284;2022-12-07T02:05:38;4.30;75.00
4312;DHT22;2169;49.086;9.284;2022-12-07T02:08:07;4.30;75.00
4312;DHT22;2169;49.086;9.284;2022-12-07T02:10:34;4.30;75.00
4312;DHT22;2169;49.086;9.284;2022-12-07T02:13:05;4.30;75.00
4312;DHT22;2169;49.086;9.284;2022-12-07T02:15:44;4.30;75.00
4312;DHT22;2169;49.086;9.284;2022-12-07T02:18:18;4.30;75.00
4312;DHT22;2169;49.086;9.284;2022-12-07T02:20:54;4.30;75.00
4312;DHT22;2169;49.086;9.284;2022-12-07T02:29:42;4.20;75.00
4312;DHT22;2169;49.086;9.284;2022-12-07T02:32:16;4.20;75.00
4312;DHT22;2169;49.086;9.284;2022-12-07T02:34:48;4.20;75.00
4312;DHT22;2169;49.086;9.284;2022-12-07T02:37:25;4.20;75.00
4312;DHT22;2169;49.086;9.284;2022-12-07T02:39:56;4.20;75.00
4312;DHT22;2169;49.086;9.284;2022-12-07T02:42:28;4.20;75.00
4312;DHT22;2169;49.086;9.284;2022-12-07T02:44:59;4.20;75.00
4312;DHT22;2169;49.086;9.284;2022-12-07T02:47:28;4.10;74.90
4312;DHT22;2169;49.086;9.284;2022-12-07T02:49:56;4.10;75.00
4312;DHT22;2169;49.086;9.284;2022-12-07T02:52:22;4.10;75.00
4312;DHT22;2169;49.086;9.284;2022-12-07T02:54:49;4.10;75.10
4312;DHT22;2169;49.086;9.284;2022-12-07T02:57:28;4.10;75.10
4312;DHT22;2169;49.086;9.284;2022-12-07T03:00:05;4.10;75.20
4312;DHT22;2169;49.086;9.284;2022-12-07T03:02:39;4.10;75.20
4312;DHT22;2169;49.086;9.284;2022-12-07T03:05:37;4.10;75.20
4312;DHT22;2169;49.086;9.284;2022-12-07T03:08:12;4.10;75.30
4312;DHT22;2169;49.086;9.284;2022-12-07T03:10:48;4.20;75.40
4312;DHT22;2169;49.086;9.284;2022-12-07T03:13:23;4.20;75.40
4312;DHT22;2169;49.086;9.284;2022-12-07T03:15:56;4.20;75.40
4312;DHT22;2169;49.086;9.284;2022-12-07T03:18:28;4.20;75.40
4312;DHT22;2169;49.086;9.284;2022-12-07T03:20:58;4.20;75.40
4312;DHT22;2169;49.086;9.284;2022-12-07T03:23:27;4.20;75.40
4312;DHT22;2169;49.086;9.284;2022-12-07T03:25:59;4.20;75.40
4312;DHT22;2169;49.086;9.284;2022-12-07T03:28:31;4.20;75.50
4312;DHT22;2169;49.086;9.284;2022-12-07T03:31:02;4.10;75.40
4312;DHT22;2169;49.086;9.284;2022-12-07T03:33:33;4.10;75.50
4312;DHT22;2169;49.086;9.284;2022-12-07T03:36:06;4.10;75.50
4312;DHT22;2169;49.086;9.284;2022-12-07T03:38:37;4.10;75.60
4312;DHT22;2169;49.086;9.284;2022-12-07T03:41:07;4.10;75.60
4312;DHT22;2169;49.086;9.284;2022-12-07T03:43:36;4.10;75.60
4312;DHT22;2169;49.086;9.284;2022-12-07T03:46:17;4.10;75.60
4312;DHT22;2169;49.086;9.284;2022-12-07T03:48:54;4.10;75.60
4312;DHT22;2169;49.086;9.284;2022-12-07T03:51:25;4.10;75.70
4312;DHT22;2169;49.086;9.284;2022-12-07T03:53:57;4.10;75.60
4312;DHT22;2169;49.086;9.284;2022-12-07T03:56:26;4.10;75.70
4312;DHT22;2169;49.086;9.284;2022-12-07T03:58:54;4.10;75.70
4312;DHT22;2169;49.086;9.284;2022-12-07T04:01:22;4.10;75.70
4312;DHT22;2169;49.086;9.284;2022-12-07T04:03:49;4.10;75.80
4312;DHT22;2169;49.086;9.284;2022-12-07T04:06:16;4.10;75.90
4312;DHT22;2169;49.086;9.284;2022-12-07T04:08:43;4.10;75.90
4312;DHT22;2169;49.086;9.284;2022-12-07T04:11:10;4.10;75.90
4312;DHT22;2169;49.086;9.284;2022-12-07T04:13:37;4.10;75.90
4312;DHT22;2169;49.086;9.284;2022-12-07T04:16:17;4.10;75.80
4312;DHT22;2169;49.086;9.284;2022-12-07T04:18:45;4.10;75.90
4312;DHT22;2169;49.086;9.284;2022-12-07T04:21:12;4.10;75.90
4312;DHT22;2169;49.086;9.284;2022-12-07T04:23:39;4.10;75.90
4312;DHT22;2169;49.086;9.284;2022-12-07T04:26:06;4.10;75.90
4312;DHT22;2169;49.086;9.284;2022-12-07T04:28:32;4.10;75.90
4312;DHT22;2169;49.086;9.284;2022-12-07T04:30:59;4.20;76.00
4312;DHT22;2169;49.086;9.284;2022-12-07T04:33:26;4.20;76.00
4312;DHT22;2169;49.086;9.284;2022-12-07T04:35:54;4.20;76.00
4312;DHT22;2169;49.086;9.284;2022-12-07T04:38:21;4.20;75.90
4312;DHT22;2169;49.086;9.284;2022-12-07T04:40:47;4.10;75.80
4312;DHT22;2169;49.086;9.284;2022-12-07T04:43:14;4.10;75.80
4312;DHT22;2169;49.086;9.284;2022-12-07T04:45:46;4.10;75.80
4312;DHT22;2169;49.086;9.284;2022-12-07T04:48:13;4.10;75.90
4312;DHT22;2169;49.086;9.284;2022-12-07T04:50:40;4.10;75.90
4312;DHT22;2169;49.086;9.284;2022-12-07T04:53:08;4.10;75.80
4312;DHT22;2169;49.086;9.284;2022-12-07T04:55:35;4.10;75.80
4312;DHT22;2169;49.086;9.284;2022-12-07T04:58:03;4.10;75.80
4312;DHT22;2169;49.086;9.284;2022-12-07T05:00:30;4.00;75.70
4312;DHT22;2169;49.086;9.284;2022-12-07T05:02:57;4.00;75.70
4312;DHT22;2169;49.086;9.284;2022-12-07T05:05:23;4.00;75.70
4312;DHT22;2169;49.086;9.284;2022-12-07T05:07:50;4.00;75.70
4312;DHT22;2169;49.086;9.284;2022-12-07T05:10:18;4.00;75.80
4312;DHT22;2169;49.086;9.284;2022-12-07T05:12:45;4.00;75.80
4312;DHT22;2169;49.086;9.284;2022-12-07T05:15:13;4.00;75.70
4312;DHT22;2169;49.086;9.284;2022-12-07T05:17:39;3.90;75.60
4312;DHT22;2169;49.086;9.284;2022-12-07T05:20:07;3.90;75.60
4312;DHT22;2169;49.086;9.284;2022-12-07T05:22:34;3.90;75.70
4312;DHT22;2169;49.086;9.284;2022-12-07T05:25:01;3.90;75.70
4312;DHT22;2169;49.086;9.284;2022-12-07T05:27:29;3.90;75.80
4312;DHT22;2169;49.086;9.284;2022-12-07T05:29:56;3.90;75.70
4312;DHT22;2169;49.086;9.284;2022-12-07T05:32:22;3.90;75.70
4312;DHT22;2169;49.086;9.284;2022-12-07T05:34:49;3.90;75.70
4312;DHT22;2169;49.086;9.284;2022-12-07T05:37:16;3.90;75.70
4312;DHT22;2169;49.086;9.284;2022-12-07T05:39:42;3.90;75.70
4312;DHT22;2169;49.086;9.284;2022-12-07T05:42:10;3.90;75.70
4312;DHT22;2169;49.086;9.284;2022-12-07T05:44:40;3.90;75.70
4312;DHT22;2169;49.086;9.284;2022-12-07T05:47:07;3.90;75.70
4312;DHT22;2169;49.086;9.284;2022-12-07T05:49:34;3.90;75.70
4312;DHT22;2169;49.086;9.284;2022-12-07T05:52:00;3.90;75.70
4312;DHT22;2169;49.086;9.284;2022-12-07T05:54:27;3.90;75.80
4312;DHT22;2169;49.086;9.284;2022-12-07T05:56:54;3.90;75.80
4312;DHT22;2169;49.086;9.284;2022-12-07T05:59:21;3.90;75.80
4312;DHT22;2169;49.086;9.284;2022-12-07T06:01:54;3.90;75.70
4312;DHT22;2169;49.086;9.284;2022-12-07T06:04:22;3.90;75.80
4312;DHT22;2169;49.086;9.284;2022-12-07T06:06:49;3.90;75.80
4312;DHT22;2169;49.086;9.284;2022-12-07T06:09:16;3.90;75.80
4312;DHT22;2169;49.086;9.284;2022-12-07T06:11:43;3.90;75.90
4312;DHT22;2169;49.086;9.284;2022-12-07T06:14:28;3.90;75.90
4312;DHT22;2169;49.086;9.284;2022-12-07T06:16:57;3.90;75.90
4312;DHT22;2169;49.086;9.284;2022-12-07T06:19:24;3.90;75.90
4312;DHT22;2169;49.086;9.284;2022-12-07T06:21:51;3.90;75.90
4312;DHT22;2169;49.086;9.284;2022-12-07T06:24:18;3.90;75.90
4312;DHT22;2169;49.086;9.284;2022-12-07T06:26:45;3.90;75.90
4312;DHT22;2169;49.086;9.284;2022-12-07T06:29:12;3.90;75.90
4312;DHT22;2169;49.086;9.284;2022-12-07T06:31:39;3.90;75.90
4312;DHT22;2169;49.086;9.284;2022-12-07T06:34:11;3.80;75.80
4312;DHT22;2169;49.086;9.284;2022-12-07T06:36:38;3.90;75.90
4312;DHT22;2169;49.086;9.284;2022-12-07T06:39:05;3.80;75.90
4312;DHT22;2169;49.086;9.284;2022-12-07T06:41:34;3.90;76.00
4312;DHT22;2169;49.086;9.284;2022-12-07T06:44:01;3.80;75.90
4312;DHT22;2169;49.086;9.284;2022-12-07T06:46:28;3.80;75.90
4312;DHT22;2169;49.086;9.284;2022-12-07T06:48:55;3.80;75.90
4312;DHT22;2169;49.086;9.284;2022-12-07T06:51:23;3.80;75.90
4312;DHT22;2169;49.086;9.284;2022-12-07T06:53:50;3.80;75.90
4312;DHT22;2169;49.086;9.284;2022-12-07T06:56:17;3.80;75.90
4312;DHT22;2169;49.086;9.284;2022-12-07T06:58:43;3.80;76.00
4312;DHT22;2169;49.086;9.284;2022-12-07T07:01:11;3.80;76.00
4312;DHT22;2169;49.086;9.284;2022-12-07T07:03:38;3.80;76.00
4312;DHT22;2169;49.086;9.284;2022-12-07T07:06:05;3.80;76.00
4312;DHT22;2169;49.086;9.284;2022-12-07T07:08:34;3.80;76.00
4312;DHT22;2169;49.086;9.284;2022-12-07T07:11:01;3.80;76.00
4312;DHT22;2169;49.086;9.284;2022-12-07T07:13:28;3.80;76.00
4312;DHT22;2169;49.086;9.284;2022-12-07T07:15:55;3.80;76.00
4312;DHT22;2169;49.086;9.284;2022-12-07T07:18:22;3.80;76.00
4312;DHT22;2169;49.086;9.284;2022-12-07T07:20:50;3.80;76.10
4312;DHT22;2169;49.086;9.284;2022-12-07T07:23:17;3.80;76.00
4312;DHT22;2169;49.086;9.284;2022-12-07T07:25:45;3.80;76.10
4312;DHT22;2169;49.086;9.284;2022-12-07T07:28:12;3.80;76.10
4312;DHT22;2169;49.086;9.284;2022-12-07T07:30:39;3.80;76.00
4312;DHT22;2169;49.086;9.284;2022-12-07T07:33:05;3.80;76.10
4312;DHT22;2169;49.086;9.284;2022-12-07T07:35:34;3.80;76.10
4312;DHT22;2169;49.086;9.284;2022-12-07T07:38:01;3.80;76.10
4312;DHT22;2169;49.086;9.284;2022-12-07T07:40:28;3.80;76.10
4312;DHT22;2169;49.086;9.284;2022-12-07T07:42:57;3.80;76.10
4312;DHT22;2169;49.086;9.284;2022-12-07T07:45:26;3.80;76.10
4312;DHT22;2169;49.086;9.284;2022-12-07T07:47:53;3.80;76.10
4312;DHT22;2169;49.086;9.284;2022-12-07T07:50:20;3.80;76.10
4312;DHT22;2169;49.086;9.284;2022-12-07T07:52:47;3.80;76.20
4312;DHT22;2169;49.086;9.284;2022-12-07T07:55:14;3.90;76.30
4312;DHT22;2169;49.086;9.284;2022-12-07T07:57:41;3.90;76.30
4312;DHT22;2169;49.086;9.284;2022-12-07T08:00:12;3.90;76.30
4312;DHT22;2169;49.086;9.284;2022-12-07T08:02:40;3.90;76.30
4312;DHT22;2169;49.086;9.284;2022-12-07T08:05:08;3.90;76.30
4312;DHT22;2169;49.086;9.284;2022-12-07T08:07:35;3.90;76.30
4312;DHT22;2169;49.086;9.284;2022-12-07T08:10:02;3.90;76.30
4312;DHT22;2169;49.086;9.284;2022-12-07T08:12:29;4.00;76.40
4312;DHT22;2169;49.086;9.284;2022-12-07T08:14:56;4.00;76.40
4312;DHT22;2169;49.086;9.284;2022-12-07T08:17:24;4.00;76.40
4312;DHT22;2169;49.086;9.284;2022-12-07T08:19:51;4.00;76.40
4312;DHT22;2169;49.086;9.284;2022-12-07T08:22:18;4.00;76.40
4312;DHT22;2169;49.086;9.284;2022-12-07T08:24:44;4.00;76.50
4312;DHT22;2169;49.086;9.284;2022-12-07T08:27:11;4.00;76.50
4312;DHT22;2169;49.086;9.284;2022-12-07T08:29:38;4.10;76.60
4312;DHT22;2169;49.086;9.284;2022-12-07T08:32:04;4.10;76.60
4312;DHT22;2169;49.086;9.284;2022-12-07T08:34:33;4.10;76.60
4312;DHT22;2169;49.086;9.284;2022-12-07T08:37:00;4.10;76.60
4312;DHT22;2169;49.086;9.284;2022-12-07T08:39:27;4.10;76.60
4312;DHT22;2169;49.086;9.284;2022-12-07T08:41:53;4.10;76.60
4312;DHT22;2169;49.086;9.284;2022-12-07T08:44:20;4.10;76.60
4312;DHT22;2169;49.086;9.284;2022-12-07T08:46:50;4.20;76.60
4312;DHT22;2169;49.086;9.284;2022-12-07T08:49:19;4.20;76.60
4312;DHT22;2169;49.086;9.284;2022-12-07T08:51:48;4.20;76.60
4312;DHT22;2169;49.086;9.284;2022-12-07T08:54:17;4.20;76.60
4312;DHT22;2169;49.086;9.284;2022-12-07T08:56:45;4.20;76.60
4312;DHT22;2169;49.086;9.284;2022-12-07T08:59:14;4.30;76.70
4312;DHT22;2169;49.086;9.284;2022-12-07T09:01:43;4.30;76.60
4312;DHT22;2169;49.086;9.284;2022-12-07T09:04:09;4.30;76.60
4312;DHT22;2169;49.086;9.284;2022-12-07T09:06:36;4.30;76.60
4312;DHT22;2169;49.086;9.284;2022-12-07T09:09:04;4.30;76.60
4312;DHT22;2169;49.086;9.284;2022-12-07T09:11:32;4.30;76.50
4312;DHT22;2169;49.086;9.284;2022-12-07T09:13:59;4.40;76.50
4312;DHT22;2169;49.086;9.284;2022-12-07T09:16:25;4.40;76.50
4312;DHT22;2169;49.086;9.284;2022-12-07T09:18:52;4.40;76.40
4312;DHT22;2169;49.086;9.284;2022-12-07T09:21:19;4.40;76.40
4312;DHT22;2169;49.086;9.284;2022-12-07T09:23:46;4.40;76.40
4312;DHT22;2169;49.086;9.284;2022-12-07T09:26:14;4.40;76.30
4312;DHT22;2169;49.086;9.284;2022-12-07T09:28:40;4.50;76.40
4312;DHT22;2169;49.086;9.284;2022-12-07T09:31:07;4.50;76.30
4312;DHT22;2169;49.086;9.284;2022-12-07T09:33:34;4.50;76.30
4312;DHT22;2169;49.086;9.284;2022-12-07T09:36:01;4.50;76.30
4312;DHT22;2169;49.086;9.284;2022-12-07T09:38:28;4.60;76.40
4312;DHT22;2169;49.086;9.284;2022-12-07T09:40:56;4.60;76.30
4312;DHT22;2169;49.086;9.284;2022-12-07T09:43:25;4.60;76.30
4312;DHT22;2169;49.086;9.284;2022-12-07T09:45:54;4.60;76.20
4312;DHT22;2169;49.086;9.284;2022-12-07T09:48:24;4.60;76.20
4312;DHT22;2169;49.086;9.284;2022-12-07T09:50:54;4.70;76.20
4312;DHT22;2169;49.086;9.284;2022-12-07T09:53:25;4.70;76.20
4312;DHT22;2169;49.086;9.284;2022-12-07T09:55:53;4.70;76.10
4312;DHT22;2169;49.086;9.284;2022-12-07T09:58:23;4.70;76.00
4312;DHT22;2169;49.086;9.284;2022-12-07T10:00:53;4.70;75.90
4312;DHT22;2169;49.086;9.284;2022-12-07T10:03:22;4.70;75.90
4312;DHT22;2169;49.086;9.284;2022-12-07T10:05:50;4.70;75.80
4312;DHT22;2169;49.086;9.284;2022-12-07T10:08:18;4.80;75.80
4312;DHT22;2169;49.086;9.284;2022-12-07T10:10:48;4.80;75.80
4312;DHT22;2169;49.086;9.284;2022-12-07T10:13:19;4.80;75.70
4312;DHT22;2169;49.086;9.284;2022-12-07T10:15:49;4.80;75.70
4312;DHT22;2169;49.086;9.284;2022-12-07T10:18:21;4.90;75.70
4312;DHT22;2169;49.086;9.284;2022-12-07T10:21:01;4.90;75.60
4312;DHT22;2169;49.086;9.284;2022-12-07T10:23:28;4.90;75.60
4312;DHT22;2169;49.086;9.284;2022-12-07T10:25:55;4.90;75.50
4312;DHT22;2169;49.086;9.284;2022-12-07T10:28:23;4.90;75.50
4312;DHT22;2169;49.086;9.284;2022-12-07T10:30:56;4.90;75.40
4312;DHT22;2169;49.086;9.284;2022-12-07T10:33:34;5.00;75.70
4312;DHT22;2169;49.086;9.284;2022-12-07T10:36:16;5.00;75.40
4312;DHT22;2169;49.086;9.284;2022-12-07T10:38:45;5.00;75.40
4312;DHT22;2169;49.086;9.284;2022-12-07T10:41:12;5.00;75.30
4312;DHT22;2169;49.086;9.284;2022-12-07T10:43:51;5.10;75.40
4312;DHT22;2169;49.086;9.284;2022-12-07T10:46:30;5.10;75.40
4312;DHT22;2169;49.086;9.284;2022-12-07T10:49:07;5.10;75.30
4312;DHT22;2169;49.086;9.284;2022-12-07T10:51:42;5.20;75.30
4312;DHT22;2169;49.086;9.284;2022-12-07T10:54:14;5.20;75.30
4312;DHT22;2169;49.086;9.284;2022-12-07T10:57:10;5.20;75.20
4312;DHT22;2169;49.086;9.284;2022-12-07T11:00:00;5.20;75.10
4312;DHT22;2169;49.086;9.284;2022-12-07T11:03:00;5.20;75.00
4312;DHT22;2169;49.086;9.284;2022-12-07T11:05:32;5.30;75.10
4312;DHT22;2169;49.086;9.284;2022-12-07T11:08:13;5.30;75.00
4312;DHT22;2169;49.086;9.284;2022-12-07T11:10:46;5.20;74.80
4312;DHT22;2169;49.086;9.284;2022-12-07T11:13:24;5.30;74.80
4312;DHT22;2169;49.086;9.284;2022-12-07T11:19:11;5.30;74.70
4312;DHT22;2169;49.086;9.284;2022-12-07T11:21:48;5.30;74.60
4312;DHT22;2169;49.086;9.284;2022-12-07T11:24:19;5.30;74.60
4312;DHT22;2169;49.086;9.284;2022-12-07T11:26:59;5.30;74.50
4312;DHT22;2169;49.086;9.284;2022-12-07T11:29:47;5.40;74.60
4312;DHT22;2169;49.086;9.284;2022-12-07T11:32:22;5.40;74.50
4312;DHT22;2169;49.086;9.284;2022-12-07T11:35:02;5.40;74.50
4312;DHT22;2169;49.086;9.284;2022-12-07T11:37:35;5.40;74.50
4312;DHT22;2169;49.086;9.284;2022-12-07T11:40:05;5.40;74.40
4312;DHT22;2169;49.086;9.284;2022-12-07T11:42:42;5.40;74.30
4312;DHT22;2169;49.086;9.284;2022-12-07T11:45:15;5.50;74.40
4312;DHT22;2169;49.086;9.284;2022-12-07T11:47:47;5.50;74.30
4312;DHT22;2169;49.086;9.284;2022-12-07T11:50:23;5.50;74.30
4312;DHT22;2169;49.086;9.284;2022-12-07T11:52:54;5.50;74.30
4312;DHT22;2169;49.086;9.284;2022-12-07T11:55:29;5.50;74.20
4312;DHT22;2169;49.086;9.284;2022-12-07T11:58:04;5.50;74.20
4312;DHT22;2169;49.086;9.284;2022-12-07T12:00:32;5.60;74.20
4312;DHT22;2169;49.086;9.284;2022-12-07T12:03:03;5.60;74.20
4312;DHT22;2169;49.086;9.284;2022-12-07T12:05:30;5.60;74.20
4312;DHT22;2169;49.086;9.284;2022-12-07T12:08:05;5.60;74.20
4312;DHT22;2169;49.086;9.284;2022-12-07T12:10:45;5.60;74.10
4312;DHT22;2169;49.086;9.284;2022-12-07T12:16:20;5.60;74.10
4312;DHT22;2169;49.086;9.284;2022-12-07T12:18:58;5.60;74.10
4312;DHT22;2169;49.086;9.284;2022-12-07T12:21:29;5.60;74.00
4312;DHT22;2169;49.086;9.284;2022-12-07T12:24:02;5.60;74.00
4312;DHT22;2169;49.086;9.284;2022-12-07T12:26:32;5.60;73.90
4312;DHT22;2169;49.086;9.284;2022-12-07T12:29:02;5.60;73.90
4312;DHT22;2169;49.086;9.284;2022-12-07T12:31:36;5.60;73.90
4312;DHT22;2169;49.086;9.284;2022-12-07T12:34:38;5.70;73.90
4312;DHT22;2169;49.086;9.284;2022-12-07T12:37:40;5.70;73.80
4312;DHT22;2169;49.086;9.284;2022-12-07T12:40:41;5.70;73.80
4312;DHT22;2169;49.086;9.284;2022-12-07T12:43:40;5.70;73.80
4312;DHT22;2169;49.086;9.284;2022-12-07T12:46:38;5.70;73.70
4312;DHT22;2169;49.086;9.284;2022-12-07T12:49:38;5.70;73.70
4312;DHT22;2169;49.086;9.284;2022-12-07T12:52:46;5.70;73.70
4312;DHT22;2169;49.086;9.284;2022-12-07T12:55:29;5.70;73.60
4312;DHT22;2169;49.086;9.284;2022-12-07T12:58:32;5.70;73.60
4312;DHT22;2169;49.086;9.284;2022-12-07T13:01:37;5.70;73.60
4312;DHT22;2169;49.086;9.284;2022-12-07T13:07:03;5.70;73.50
4312;DHT22;2169;49.086;9.284;2022-12-07T13:09:32;5.70;73.50
4312;DHT22;2169;49.086;9.284;2022-12-07T13:12:02;5.70;73.50
4312;DHT22;2169;49.086;9.284;2022-12-07T13:17:58;5.80;73.50
4312;DHT22;2169;49.086;9.284;2022-12-07T13:20:46;5.80;73.40
4312;DHT22;2169;49.086;9.284;2022-12-07T13:23:16;5.80;73.40
4312;DHT22;2169;49.086;9.284;2022-12-07T13:28:48;5.80;73.30
4312;DHT22;2169;49.086;9.284;2022-12-07T13:31:34;5.80;73.30
4312;DHT22;2169;49.086;9.284;2022-12-07T13:34:04;5.90;73.30
4312;DHT22;2169;49.086;9.284;2022-12-07T13:36:33;5.80;73.30
4312;DHT22;2169;49.086;9.284;2022-12-07T13:39:16;5.80;73.20
4312;DHT22;2169;49.086;9.284;2022-12-07T13:41:45;5.80;73.20
4312;DHT22;2169;49.086;9.284;2022-12-07T13:44:16;5.90;73.20
4312;DHT22;2169;49.086;9.284;2022-12-07T13:46:48;5.80;73.10
4312;DHT22;2169;49.086;9.284;2022-12-07T13:49:20;5.90;73.20
4312;DHT22;2169;49.086;9.284;2022-12-07T13:51:47;5.90;73.10
4312;DHT22;2169;49.086;9.284;2022-12-07T13:54:15;5.90;73.10
4312;DHT22;2169;49.086;9.284;2022-12-07T13:56:42;5.90;73.10
4312;DHT22;2169;49.086;9.284;2022-12-07T13:59:13;5.90;73.00
4312;DHT22;2169;49.086;9.284;2022-12-07T14:01:40;5.90;73.00
4312;DHT22;2169;49.086;9.284;2022-12-07T14:04:34;5.90;73.00
4312;DHT22;2169;49.086;9.284;2022-12-07T14:07:19;5.90;72.90
4312;DHT22;2169;49.086;9.284;2022-12-07T14:09:55;5.90;72.90
4312;DHT22;2169;49.086;9.284;2022-12-07T14:12:22;5.90;72.90
4312;DHT22;2169;49.086;9.284;2022-12-07T14:14:49;5.90;73.00
4312;DHT22;2169;49.086;9.284;2022-12-07T14:17:18;5.90;73.00
4312;DHT22;2169;49.086;9.284;2022-12-07T14:19:49;5.90;73.00
4312;DHT22;2169;49.086;9.284;2022-12-07T14:22:27;5.90;73.00
4312;DHT22;2169;49.086;9.284;2022-12-07T14:25:17;5.90;73.00
4312;DHT22;2169;49.086;9.284;2022-12-07T14:27:50;6.00;73.10
4312;DHT22;2169;49.086;9.284;2022-12-07T14:30:18;5.90;73.00
4312;DHT22;2169;49.086;9.284;2022-12-07T14:32:48;5.90;73.00
4312;DHT22;2169;49.086;9.284;2022-12-07T14:35:19;5.90;72.90
4312;DHT22;2169;49.086;9.284;2022-12-07T14:37:48;5.90;73.00
4312;DHT22;2169;49.086;9.284;2022-12-07T14:40:17;5.90;72.90
4312;DHT22;2169;49.086;9.284;2022-12-07T14:42:45;5.90;72.90
4312;DHT22;2169;49.086;9.284;2022-12-07T14:45:14;5.90;72.90
4312;DHT22;2169;49.086;9.284;2022-12-07T14:47:42;5.90;72.90
4312;DHT22;2169;49.086;9.284;2022-12-07T14:50:12;5.90;72.90
4312;DHT22;2169;49.086;9.284;2022-12-07T14:52:41;5.90;72.90
4312;DHT22;2169;49.086;9.284;2022-12-07T14:55:14;5.90;72.90
4312;DHT22;2169;49.086;9.284;2022-12-07T14:57:42;5.90;73.00
4312;DHT22;2169;49.086;9.284;2022-12-07T15:00:13;6.00;73.10
4312;DHT22;2169;49.086;9.284;2022-12-07T15:02:40;6.00;73.10
4312;DHT22;2169;49.086;9.284;2022-12-07T15:05:08;5.90;72.90
4312;DHT22;2169;49.086;9.284;2022-12-07T15:07:34;5.90;72.90
4312;DHT22;2169;49.086;9.284;2022-12-07T15:10:03;5.90;72.90
4312;DHT22;2169;49.086;9.284;2022-12-07T15:12:30;5.90;72.90
4312;DHT22;2169;49.086;9.284;2022-12-07T15:14:57;5.90;72.80
4312;DHT22;2169;49.086;9.284;2022-12-07T15:17:24;5.90;72.80
4312;DHT22;2169;49.086;9.284;2022-12-07T15:19:51;5.80;72.70
4312;DHT22;2169;49.086;9.284;2022-12-07T15:22:17;5.80;72.70
4312;DHT22;2169;49.086;9.284;2022-12-07T15:24:44;5.80;72.70
4312;DHT22;2169;49.086;9.284;2022-12-07T15:27:12;5.80;72.70
4312;DHT22;2169;49.086;9.284;2022-12-07T15:29:39;5.80;72.70
4312;DHT22;2169;49.086;9.284;2022-12-07T15:32:06;5.80;72.70
4312;DHT22;2169;49.086;9.284;2022-12-07T15:34:32;5.80;72.70
4312;DHT22;2169;49.086;9.284;2022-12-07T15:36:59;5.80;72.70
4312;DHT22;2169;49.086;9.284;2022-12-07T15:39:26;5.80;72.70
4312;DHT22;2169;49.086;9.284;2022-12-07T15:41:53;5.70;72.60
4312;DHT22;2169;49.086;9.284;2022-12-07T15:44:21;5.70;72.60
4312;DHT22;2169;49.086;9.284;2022-12-07T15:47:05;5.70;72.50
4312;DHT22;2169;49.086;9.284;2022-12-07T15:49:32;5.70;72.50
4312;DHT22;2169;49.086;9.284;2022-12-07T15:51:59;5.70;72.50
4312;DHT22;2169;49.086;9.284;2022-12-07T15:54:27;5.70;72.50
4312;DHT22;2169;49.086;9.284;2022-12-07T15:56:54;5.70;72.60
4312;DHT22;2169;49.086;9.284;2022-12-07T15:59:23;5.60;72.50
4312;DHT22;2169;49.086;9.284;2022-12-07T16:01:50;5.60;72.50
4312;DHT22;2169;49.086;9.284;2022-12-07T16:04:17;5.60;72.50
4312;DHT22;2169;49.086;9.284;2022-12-07T16:06:44;5.60;72.50
4312;DHT22;2169;49.086;9.284;2022-12-07T16:09:11;5.60;72.50
4312;DHT22;2169;49.086;9.284;2022-12-07T16:11:37;5.60;72.50
4312;DHT22;2169;49.086;9.284;2022-12-07T16:14:04;5.60;72.50
4312;DHT22;2169;49.086;9.284;2022-12-07T16:16:32;5.50;72.40
4312;DHT22;2169;49.086;9.284;2022-12-07T16:18:59;5.50;72.40
4312;DHT22;2169;49.086;9.284;2022-12-07T16:21:26;5.50;72.40
4312;DHT22;2169;49.086;9.284;2022-12-07T16:23:53;5.40;72.40
4312;DHT22;2169;49.086;9.284;2022-12-07T16:26:21;5.40;72.50
4312;DHT22;2169;49.086;9.284;2022-12-07T16:28:49;5.40;72.60
4312;DHT22;2169;49.086;9.284;2022-12-07T16:31:17;5.40;72.60
4312;DHT22;2169;49.086;9.284;2022-12-07T16:33:47;5.40;72.70
4312;DHT22;2169;49.086;9.284;2022-12-07T16:36:15;5.40;72.70
4312;DHT22;2169;49.086;9.284;2022-12-07T16:38:42;5.40;72.80
4312;DHT22;2169;49.086;9.284;2022-12-07T16:41:10;5.40;72.90
4312;DHT22;2169;49.086;9.284;2022-12-07T16:43:37;5.40;72.80
4312;DHT22;2169;49.086;9.284;2022-12-07T16:46:04;5.40;72.90
4312;DHT22;2169;49.086;9.284;2022-12-07T16:48:31;5.40;72.90
4312;DHT22;2169;49.086;9.284;2022-12-07T16:51:04;5.40;72.90
4312;DHT22;2169;49.086;9.284;2022-12-07T16:53:31;5.40;72.90
4312;DHT22;2169;49.086;9.284;2022-12-07T16:55:58;5.40;72.90
4312;DHT22;2169;49.086;9.284;2022-12-07T16:58:25;5.30;72.80
4312;DHT22;2169;49.086;9.284;2022-12-07T17:00:51;5.30;72.90